Terminal Aerodrome Forecast
Issued by NWS Miami, FL

Home | Current Version | Previous Version | Text Only | Print | Product List | Glossary On
Versions: 1 2 3 4 5 6 7 8 9 10 11 12 13 14 15 16 17 18 19 20 21 22 23 24 25 26
000
FTUS42 KMFL 301231 AAA
TAFAPF
TAF AMD
KAPF 301231Z 3013/0112 09010G20KT P6SM FEW025
     FM301400 12015G25KT P6SM SCT030 BKN120 BKN250
     FM010100 12010KT P6SM FEW025=

USA.gov is the U.S. government's official web portal to all federal, state and local government web resources and services.